createdAt,value
2019-03-16T00:01:37.069Z,10.80
2019-03-16T00:04:06.152Z,10.80
2019-03-16T00:06:35.320Z,10.70
2019-03-16T00:09:07.084Z,10.80
2019-03-16T00:11:36.092Z,10.70
2019-03-16T00:14:05.149Z,10.70
2019-03-16T00:16:34.210Z,10.60
2019-03-16T00:19:03.420Z,10.70
2019-03-16T00:21:32.464Z,10.70
2019-03-16T00:24:01.570Z,10.80
2019-03-16T00:26:30.600Z,10.70
2019-03-16T00:28:59.645Z,10.70
2019-03-16T00:33:57.291Z,10.80
2019-03-16T00:36:26.290Z,10.80
2019-03-16T00:38:55.352Z,10.80
2019-03-16T00:41:24.578Z,10.80
2019-03-16T00:43:53.653Z,10.80
2019-03-16T00:46:22.730Z,10.70
2019-03-16T00:48:51.763Z,10.70
2019-03-16T00:53:49.619Z,10.80
2019-03-16T00:56:18.694Z,10.80
2019-03-16T00:58:47.723Z,10.80
2019-03-16T01:01:16.841Z,10.80
2019-03-16T01:03:45.816Z,10.80
2019-03-16T01:06:14.884Z,10.80
2019-03-16T01:08:43.895Z,10.90
2019-03-16T01:11:12.941Z,10.90
2019-03-16T01:13:41.965Z,10.90
2019-03-16T01:16:10.929Z,10.80
2019-03-16T01:21:08.625Z,10.80
2019-03-16T01:23:37.719Z,10.90
2019-03-16T01:26:06.928Z,10.90
2019-03-16T01:28:35.860Z,10.80
2019-03-16T01:31:04.818Z,10.90
2019-03-16T01:36:02.300Z,10.90
2019-03-16T01:40:59.966Z,10.80
2019-03-16T01:43:28.970Z,10.90
2019-03-16T01:45:58.047Z,10.90
2019-03-16T01:48:26.981Z,10.90
2019-03-16T01:50:56.032Z,10.90
2019-03-16T01:53:25.044Z,10.90
2019-03-16T01:55:54.042Z,10.90
2019-03-16T01:58:23.000Z,10.90
2019-03-16T02:00:52.219Z,10.90
2019-03-16T02:03:21.175Z,10.90
2019-03-16T02:05:50.142Z,11.00
2019-03-16T02:08:19.181Z,10.90
2019-03-16T02:10:48.137Z,11.00
2019-03-16T02:13:17.273Z,11.00
2019-03-16T02:15:46.233Z,11.00
2019-03-16T02:18:15.286Z,11.00
2019-03-16T02:23:13.254Z,11.00
2019-03-16T02:25:42.233Z,11.00
2019-03-16T02:30:39.802Z,11.00
2019-03-16T02:33:13.389Z,11.00
2019-03-16T02:35:39.581Z,11.10
2019-03-16T02:38:08.675Z,11.00
2019-03-16T02:40:37.744Z,11.10
2019-03-16T02:43:06.731Z,11.10
2019-03-16T02:45:35.907Z,11.10
2019-03-16T02:50:33.413Z,11.20
2019-03-16T02:53:02.449Z,11.20
2019-03-16T03:00:28.498Z,11.20
2019-03-16T03:02:57.465Z,11.30
2019-03-16T03:05:26.487Z,11.20
2019-03-16T03:07:55.454Z,11.20
2019-03-16T03:10:24.410Z,11.20
2019-03-16T03:12:53.435Z,11.30
2019-03-16T03:15:22.390Z,11.20
2019-03-16T03:17:51.377Z,11.20
2019-03-16T03:20:20.401Z,11.20
2019-03-16T03:22:49.455Z,11.30
2019-03-16T03:25:18.510Z,11.30
2019-03-16T03:27:47.762Z,11.20
2019-03-16T03:30:16.811Z,11.20
2019-03-16T03:35:14.933Z,11.20
2019-03-16T03:37:43.886Z,11.20
2019-03-16T03:40:12.846Z,11.20
2019-03-16T03:45:10.440Z,11.10
2019-03-16T03:52:36.541Z,11.10
2019-03-16T03:55:06.064Z,11.10
2019-03-16T03:57:35.110Z,11.00
2019-03-16T04:02:32.941Z,11.00
2019-03-16T04:07:30.507Z,11.00
2019-03-16T04:09:59.537Z,10.90
2019-03-16T04:12:28.537Z,10.90
2019-03-16T04:14:57.573Z,10.90
2019-03-16T04:17:26.618Z,10.90
2019-03-16T04:19:55.621Z,10.90
2019-03-16T04:22:24.593Z,10.80
2019-03-16T04:24:53.581Z,10.80
2019-03-16T04:27:22.573Z,10.80
2019-03-16T04:29:51.597Z,10.80
2019-03-16T04:32:20.833Z,10.90
2019-03-16T04:34:49.795Z,10.90
2019-03-16T04:37:18.832Z,10.80
2019-03-16T04:39:47.733Z,10.80
2019-03-16T04:42:16.685Z,10.80
2019-03-16T04:47:14.070Z,10.80
2019-03-16T04:49:43.156Z,10.70
2019-03-16T04:57:09.229Z,10.70
2019-03-16T04:59:38.337Z,10.70
2019-03-16T05:02:07.221Z,10.70
2019-03-16T05:04:42.457Z,10.70
2019-03-16T05:07:06.990Z,10.70
2019-03-16T05:09:36.110Z,10.70
2019-03-16T05:12:05.041Z,10.70
2019-03-16T05:14:34.065Z,10.70
2019-03-16T05:17:03.191Z,10.70
2019-03-16T05:22:01.079Z,10.70
2019-03-16T05:24:30.139Z,10.70
2019-03-16T05:26:59.136Z,10.70
2019-03-16T05:29:28.105Z,10.70
2019-03-16T05:34:26.688Z,10.80
2019-03-16T05:36:56.336Z,10.70
2019-03-16T05:39:25.495Z,10.70
2019-03-16T05:41:54.439Z,10.70
2019-03-16T05:44:23.568Z,10.70
2019-03-16T05:46:52.584Z,10.70
2019-03-16T05:49:21.554Z,10.70
2019-03-16T05:51:50.553Z,10.70
2019-03-16T05:54:19.691Z,10.70
2019-03-16T05:56:48.687Z,10.70
2019-03-16T05:59:17.595Z,10.70
2019-03-16T06:01:46.587Z,10.70
2019-03-16T06:04:15.695Z,10.70
2019-03-16T06:06:44.706Z,10.70
2019-03-16T06:09:13.595Z,10.70
2019-03-16T06:14:11.153Z,10.60
2019-03-16T06:16:40.213Z,10.60
2019-03-16T06:19:09.301Z,10.60
2019-03-16T06:21:38.340Z,10.60
2019-03-16T06:24:07.374Z,10.70
2019-03-16T06:26:36.350Z,10.70
2019-03-16T06:31:33.872Z,10.70
2019-03-16T06:36:31.372Z,10.70
2019-03-16T06:39:00.341Z,10.70
2019-03-16T06:43:57.918Z,10.70
2019-03-16T06:46:27.017Z,10.80
2019-03-16T06:48:56.038Z,10.80
2019-03-16T06:51:25.002Z,10.90
2019-03-16T06:53:54.036Z,10.90
2019-03-16T06:56:23.037Z,11.00
2019-03-16T06:58:53.088Z,11.00
2019-03-16T07:01:22.890Z,11.00
2019-03-16T07:03:51.898Z,11.00
2019-03-16T07:06:20.881Z,10.90
2019-03-16T07:11:18.400Z,11.20
2019-03-16T07:16:16.111Z,11.30
2019-03-16T07:18:58.017Z,11.10
2019-03-16T07:21:15.961Z,11.10
2019-03-16T07:23:45.010Z,11.10
2019-03-16T07:26:15.280Z,11.10
2019-03-16T07:28:44.585Z,11.10
2019-03-16T07:31:13.609Z,11.00
2019-03-16T07:36:11.161Z,11.00
2019-03-16T07:38:40.416Z,11.00
2019-03-16T07:41:09.447Z,11.00
2019-03-16T07:46:06.982Z,11.00
2019-03-16T07:48:36.101Z,11.00
2019-03-16T07:53:33.655Z,11.10
2019-03-16T07:56:02.622Z,11.20
2019-03-16T07:58:31.650Z,11.20
2019-03-16T08:03:30.892Z,11.20
2019-03-16T08:05:59.922Z,11.20
2019-03-16T08:08:28.921Z,11.30
2019-03-16T08:13:26.665Z,11.40
2019-03-16T08:15:55.667Z,11.30
2019-03-16T08:18:24.711Z,11.30
2019-03-16T08:23:22.499Z,11.30
2019-03-16T08:25:51.605Z,11.40
2019-03-16T08:28:20.700Z,11.30
2019-03-16T08:30:49.716Z,11.30
2019-03-16T08:33:18.704Z,11.30
2019-03-16T08:35:47.746Z,11.40
2019-03-16T08:38:16.804Z,11.40
2019-03-16T08:50:41.918Z,11.30
2019-03-16T08:53:11.004Z,11.50
2019-03-16T08:55:40.037Z,11.60
2019-03-16T08:58:09.041Z,11.70
2019-03-16T09:00:38.086Z,11.90
2019-03-16T09:03:07.117Z,12.00
2019-03-16T09:05:36.192Z,11.80
2019-03-16T09:08:05.146Z,11.70
2019-03-16T09:10:34.174Z,11.60
2019-03-16T09:15:31.705Z,11.50
2019-03-16T09:18:00.805Z,11.60
2019-03-16T09:20:29.793Z,11.60
2019-03-16T09:22:59.869Z,11.60
2019-03-16T09:25:28.858Z,11.70
2019-03-16T09:30:26.419Z,11.60
2019-03-16T09:32:55.400Z,11.50
2019-03-16T09:35:24.373Z,11.50
2019-03-16T09:42:50.412Z,11.40
2019-03-16T09:45:19.550Z,11.40
2019-03-16T09:47:48.552Z,11.30
2019-03-16T09:50:18.236Z,11.00
2019-03-16T09:52:50.145Z,11.00
2019-03-16T09:55:19.211Z,10.90
2019-03-16T09:57:48.281Z,10.80
2019-03-16T10:00:17.359Z,10.80
2019-03-16T10:02:46.267Z,10.70
2019-03-16T10:05:15.235Z,10.80
2019-03-16T10:07:44.289Z,10.80
2019-03-16T10:12:41.859Z,10.80
2019-03-16T10:15:10.889Z,10.90
2019-03-16T10:20:08.811Z,11.00
2019-03-16T10:25:06.237Z,11.00
2019-03-16T10:27:35.145Z,11.10
2019-03-16T10:30:04.637Z,11.10
2019-03-16T10:35:02.148Z,11.10
2019-03-16T10:37:31.196Z,11.10
2019-03-16T10:40:00.428Z,11.10
2019-03-16T10:42:29.540Z,11.10
2019-03-16T10:44:58.729Z,11.20
2019-03-16T10:47:27.714Z,11.30
2019-03-16T10:49:56.720Z,11.30
2019-03-16T10:52:25.792Z,11.30
2019-03-16T10:59:52.226Z,11.60
2019-03-16T11:04:49.896Z,11.50
2019-03-16T11:07:19.039Z,12.00
2019-03-16T11:09:48.153Z,12.30
2019-03-16T11:12:17.146Z,12.40
2019-03-16T11:14:46.212Z,12.70
2019-03-16T11:17:15.323Z,13.10
2019-03-16T11:19:44.450Z,13.00
2019-03-16T11:22:13.409Z,12.80
2019-03-16T11:27:11.000Z,13.00
2019-03-16T11:29:39.911Z,12.80
2019-03-16T11:32:09.760Z,12.60
2019-03-16T11:34:38.749Z,12.90
2019-03-16T11:37:07.698Z,14.50
2019-03-16T11:39:36.841Z,15.40
2019-03-16T11:42:05.865Z,15.40
2019-03-16T11:44:34.834Z,14.60
2019-03-16T11:49:32.623Z,14.60
2019-03-16T11:52:01.724Z,14.70
2019-03-16T11:54:30.670Z,14.80
2019-03-16T11:56:59.704Z,14.70
2019-03-16T11:59:28.786Z,15.00
2019-03-16T12:02:05.187Z,14.90
2019-03-16T12:04:28.582Z,14.30
2019-03-16T12:06:57.725Z,14.30
2019-03-16T12:09:26.767Z,13.70
2019-03-16T12:14:24.341Z,14.50
2019-03-16T12:16:53.469Z,14.50
2019-03-16T12:19:22.616Z,14.60
2019-03-16T12:21:52.800Z,15.00
2019-03-16T12:24:22.005Z,15.40
2019-03-16T12:29:19.682Z,14.80
2019-03-16T12:31:48.742Z,14.50
2019-03-16T12:36:46.233Z,14.30
2019-03-16T12:39:15.253Z,14.60
2019-03-16T12:41:44.537Z,14.60
2019-03-16T12:44:13.687Z,14.70
2019-03-16T12:46:42.733Z,15.50
2019-03-16T12:49:11.830Z,15.60
2019-03-16T12:51:40.851Z,16.00
2019-03-16T12:56:38.511Z,15.60
2019-03-16T12:59:10.886Z,15.20
2019-03-16T13:01:38.415Z,15.20
2019-03-16T13:04:07.667Z,16.00
2019-03-16T13:06:36.777Z,15.90
2019-03-16T13:09:07.972Z,15.30
2019-03-16T13:11:36.944Z,15.70
2019-03-16T13:14:06.050Z,14.90
2019-03-16T13:16:37.217Z,14.80
2019-03-16T13:19:05.798Z,14.70
2019-03-16T13:24:03.525Z,14.10
2019-03-16T13:26:32.581Z,14.30
2019-03-16T13:29:01.641Z,14.10
2019-03-16T13:31:30.618Z,13.90
2019-03-16T13:33:59.753Z,14.30
2019-03-16T13:36:28.784Z,14.00
2019-03-16T13:38:57.798Z,14.10
2019-03-16T13:41:26.877Z,14.30
2019-03-16T13:43:55.974Z,14.20
2019-03-16T13:46:25.065Z,13.70
2019-03-16T13:48:54.229Z,13.60
2019-03-16T13:51:23.215Z,13.80
2019-03-16T13:53:52.327Z,14.00
2019-03-16T14:01:19.675Z,14.00
2019-03-16T14:03:48.718Z,14.10
2019-03-16T14:11:15.032Z,13.90
2019-03-16T14:13:44.039Z,14.00
2019-03-16T14:16:13.445Z,14.20
2019-03-16T14:18:42.610Z,14.70
2019-03-16T14:21:11.853Z,14.20
2019-03-16T14:23:41.054Z,14.60
2019-03-16T14:26:10.030Z,14.80
2019-03-16T14:28:39.057Z,15.20
2019-03-16T14:33:36.707Z,15.00
2019-03-16T14:36:06.052Z,14.60
2019-03-16T14:38:35.660Z,14.20
2019-03-16T14:43:33.185Z,13.90
2019-03-16T14:46:02.437Z,14.10
2019-03-16T14:48:31.493Z,14.40
2019-03-16T14:51:00.534Z,14.60
2019-03-16T14:53:29.645Z,14.30
2019-03-16T14:55:58.747Z,14.00
2019-03-16T14:58:27.801Z,13.90
2019-03-16T15:00:56.829Z,14.00
2019-03-16T15:03:26.187Z,14.10
2019-03-16T15:10:52.376Z,13.80
2019-03-16T15:18:18.534Z,13.80
2019-03-16T15:20:47.608Z,13.80
2019-03-16T15:23:16.709Z,13.90
2019-03-16T15:25:45.877Z,13.70
2019-03-16T15:28:14.981Z,13.70
2019-03-16T15:33:14.196Z,13.60
2019-03-16T15:35:43.230Z,13.60
2019-03-16T15:38:12.110Z,13.60
2019-03-16T15:43:09.822Z,13.50
2019-03-16T15:45:38.908Z,13.50
2019-03-16T15:48:07.899Z,13.70
2019-03-16T15:50:38.145Z,13.70
2019-03-16T15:53:07.198Z,13.50
2019-03-16T15:55:36.317Z,13.40
2019-03-16T15:58:08.497Z,13.40
2019-03-16T16:00:36.291Z,13.40
2019-03-16T16:05:34.013Z,13.30
2019-03-16T16:08:03.092Z,13.20
2019-03-16T16:10:32.142Z,13.10
2019-03-16T16:13:01.213Z,13.20
2019-03-16T16:15:30.344Z,13.20
2019-03-16T16:17:59.425Z,13.20
2019-03-16T16:20:28.461Z,13.10
2019-03-16T16:22:57.523Z,13.10
2019-03-16T16:25:26.545Z,12.90
2019-03-16T16:27:55.664Z,12.80
2019-03-16T16:32:53.372Z,13.00
2019-03-16T16:35:22.476Z,13.00
2019-03-16T16:37:51.474Z,13.30
2019-03-16T16:47:46.556Z,13.00
2019-03-16T16:50:15.583Z,12.90
2019-03-16T16:52:44.629Z,12.80
2019-03-16T16:55:13.736Z,12.60
2019-03-16T16:57:42.903Z,12.40
2019-03-16T17:00:14.111Z,12.40
2019-03-16T17:02:43.215Z,12.40
2019-03-16T17:05:12.341Z,12.30
2019-03-16T17:07:41.341Z,12.20
2019-03-16T17:10:12.346Z,12.30
2019-03-16T18:11:53.746Z,11.60
2019-03-16T18:14:22.848Z,11.40
2019-03-16T18:16:51.912Z,11.30
2019-03-16T18:19:21.143Z,11.20
2019-03-16T18:21:50.215Z,11.20
2019-03-16T18:24:19.360Z,11.30
2019-03-16T18:26:48.363Z,11.30
2019-03-16T18:31:46.073Z,11.00
2019-03-16T18:34:15.257Z,10.80
2019-03-16T18:36:44.249Z,10.80
2019-03-16T18:39:13.407Z,10.90
2019-03-16T18:44:11.054Z,11.10
2019-03-16T18:46:40.261Z,11.10
2019-03-16T18:49:09.281Z,10.80
2019-03-16T18:51:38.249Z,10.70
2019-03-16T18:54:07.590Z,10.50
2019-03-16T18:56:36.658Z,10.50
2019-03-16T19:01:37.032Z,10.70
2019-03-16T19:04:06.013Z,10.50
2019-03-16T19:06:35.105Z,10.40
2019-03-16T19:09:05.497Z,10.30
2019-03-16T19:11:34.573Z,10.20
2019-03-16T19:14:03.702Z,10.00
2019-03-16T19:16:32.853Z,10.00
2019-03-16T19:19:01.829Z,9.90
2019-03-16T19:21:31.098Z,10.00
2019-03-16T19:24:00.228Z,9.90
2019-03-16T19:26:30.153Z,9.90
2019-03-16T19:28:59.396Z,9.90
2019-03-16T19:36:25.573Z,9.80
2019-03-16T19:38:54.568Z,9.90
2019-03-16T19:41:23.626Z,10.30
2019-03-16T19:43:52.755Z,10.10
2019-03-16T19:46:21.840Z,10.00
2019-03-16T19:48:50.958Z,10.10
2019-03-16T19:51:20.257Z,10.10
2019-03-16T19:56:17.779Z,10.10
2019-03-16T19:58:59.809Z,10.20
2019-03-16T20:01:17.806Z,10.10
2019-03-16T20:03:46.845Z,9.90
2019-03-16T20:08:46.496Z,9.90
2019-03-16T20:11:15.552Z,9.80
2019-03-16T20:13:44.599Z,9.80
2019-03-16T20:16:13.594Z,9.90
2019-03-16T20:18:42.944Z,9.90
2019-03-16T20:21:11.853Z,9.80
2019-03-16T20:23:40.981Z,9.90
2019-03-16T20:26:10.297Z,9.80
2019-03-16T20:31:08.059Z,10.20
2019-03-16T20:38:34.425Z,10.60
2019-03-16T20:41:03.457Z,10.90
2019-03-16T20:43:32.657Z,11.30
2019-03-16T20:46:01.729Z,11.10
2019-03-16T20:50:59.391Z,10.90
2019-03-16T20:53:28.452Z,11.00
2019-03-16T21:00:54.759Z,11.60
2019-03-16T21:03:24.904Z,11.70
2019-03-16T21:05:53.965Z,11.90
2019-03-16T21:10:51.641Z,11.80
2019-03-16T21:13:20.756Z,11.90
2019-03-16T21:15:49.726Z,12.10
2019-03-16T21:18:18.949Z,12.10
2019-03-16T21:20:48.098Z,12.10
2019-03-16T21:23:17.196Z,12.20
2019-03-16T21:25:46.291Z,12.20
2019-03-16T21:28:16.068Z,12.10
2019-03-16T21:30:45.323Z,12.10
2019-03-16T21:33:14.471Z,11.90
2019-03-16T21:35:43.849Z,11.90
2019-03-16T21:38:12.900Z,12.00
2019-03-16T21:40:42.021Z,12.10
2019-03-16T21:43:11.171Z,12.10
2019-03-16T21:45:40.213Z,12.20
2019-03-16T21:48:09.261Z,12.30
2019-03-16T21:50:38.309Z,12.10
2019-03-16T21:53:07.395Z,12.10
2019-03-16T21:58:04.972Z,11.90
2019-03-16T22:00:34.036Z,12.00
2019-03-16T22:03:03.088Z,12.10
2019-03-16T22:05:32.150Z,12.10
2019-03-16T22:12:58.989Z,12.10
2019-03-16T22:15:27.956Z,12.20
2019-03-16T22:17:57.096Z,12.00
2019-03-16T22:22:54.892Z,12.00
2019-03-16T22:25:24.263Z,11.90
2019-03-16T22:27:53.414Z,11.30
2019-03-16T22:30:22.487Z,11.20
2019-03-16T22:32:51.630Z,11.00
2019-03-16T22:35:20.724Z,11.60
2019-03-16T22:37:49.977Z,12.00
2019-03-16T22:40:18.964Z,12.10
2019-03-16T22:42:47.986Z,12.10
2019-03-16T22:45:17.074Z,12.10
2019-03-16T22:47:46.149Z,12.20
2019-03-16T22:50:15.140Z,12.30
2019-03-16T22:52:44.228Z,12.30
2019-03-16T22:55:15.888Z,12.20
2019-03-16T22:57:44.348Z,12.30
2019-03-16T23:00:14.177Z,12.30
2019-03-16T23:02:43.236Z,12.50
2019-03-16T23:05:12.246Z,12.50
2019-03-16T23:10:10.053Z,12.40
2019-03-16T23:12:39.142Z,12.40
2019-03-16T23:17:36.982Z,12.40
2019-03-16T23:20:06.487Z,12.40
2019-03-16T23:22:35.497Z,12.40
2019-03-16T23:25:04.875Z,12.40
2019-03-16T23:27:33.968Z,12.30
2019-03-16T23:30:03.013Z,12.30
2019-03-16T23:32:32.126Z,12.40
2019-03-16T23:35:01.301Z,12.40
2019-03-16T23:37:30.352Z,12.30
2019-03-16T23:39:59.431Z,12.10
2019-03-16T23:42:28.516Z,11.90
2019-03-16T23:44:57.555Z,11.80
2019-03-16T23:47:26.564Z,11.70
2019-03-16T23:49:55.577Z,11.50
2019-03-16T23:52:24.568Z,11.70
2019-03-16T23:54:53.825Z,11.50
2019-03-16T23:59:51.369Z,11.30
